createdAt,value
2023-02-26T00:02:02.500Z,26.70
2023-02-26T00:04:51.257Z,28.90
2023-02-26T00:07:40.198Z,29.40
2023-02-26T00:10:30.351Z,30.30
2023-02-26T00:13:19.488Z,31.40
2023-02-26T00:16:18.651Z,32.30
2023-02-26T00:19:09.444Z,33.30
2023-02-26T00:21:58.612Z,33.40
2023-02-26T00:24:47.248Z,33.20
2023-02-26T00:27:37.749Z,31.70
2023-02-26T00:30:26.912Z,31.20
2023-02-26T00:33:16.038Z,31.30
2023-02-26T00:36:15.821Z,27.70
2023-02-26T00:39:13.521Z,28.10
2023-02-26T00:42:02.749Z,29.00
2023-02-26T00:44:53.697Z,29.20
2023-02-26T00:47:49.997Z,30.40
2023-02-26T00:50:44.412Z,31.50
2023-02-26T00:53:37.818Z,31.10
2023-02-26T00:56:26.563Z,30.90
2023-02-26T00:59:15.289Z,29.90
2023-02-26T01:02:05.312Z,30.30
2023-02-26T01:04:54.564Z,31.30
2023-02-26T01:07:48.928Z,32.60
2023-02-26T01:10:38.150Z,33.00
2023-02-26T01:13:27.086Z,33.80
2023-02-26T01:16:22.390Z,35.10
2023-02-26T01:19:21.850Z,36.50
2023-02-26T01:22:14.437Z,36.70
2023-02-26T01:25:06.972Z,36.60
2023-02-26T01:27:57.847Z,36.70
2023-02-26T01:30:47.115Z,35.50
2023-02-26T01:33:42.411Z,35.40
2023-02-26T01:36:37.544Z,35.90
2023-02-26T01:39:33.321Z,37.00
2023-02-26T01:42:26.974Z,38.60
2023-02-26T01:45:19.169Z,38.60
2023-02-26T01:48:12.950Z,40.00
2023-02-26T01:51:01.865Z,40.90
2023-02-26T01:53:52.340Z,42.20
2023-02-26T01:56:42.263Z,42.90
2023-02-26T01:59:31.003Z,44.10
2023-02-26T02:02:22.162Z,46.10
2023-02-26T02:05:23.023Z,47.60
2023-02-26T02:08:12.321Z,49.90
2023-02-26T02:11:03.379Z,53.60
2023-02-26T02:14:11.523Z,56.90
2023-02-26T02:17:08.904Z,59.80
2023-02-26T02:20:27.969Z,63.80
2023-02-26T02:23:20.698Z,68.20
2023-02-26T02:26:34.958Z,71.80
2023-02-26T02:29:48.678Z,76.00
2023-02-26T02:32:41.240Z,77.90
2023-02-26T02:35:33.673Z,78.70
2023-02-26T02:38:26.283Z,80.80
2023-02-26T02:41:20.528Z,82.20
2023-02-26T02:44:15.296Z,83.30
2023-02-26T02:47:06.569Z,83.00
2023-02-26T02:50:03.929Z,82.20
2023-02-26T02:52:55.743Z,81.80
2023-02-26T02:55:50.316Z,81.00
2023-02-26T02:58:44.246Z,79.00
2023-02-26T03:01:35.511Z,78.40
2023-02-26T03:04:24.187Z,79.10
2023-02-26T03:07:14.243Z,79.00
2023-02-26T03:10:02.934Z,78.70
2023-02-26T03:12:51.874Z,78.60
2023-02-26T03:15:48.790Z,77.90
2023-02-26T03:18:51.969Z,77.70
2023-02-26T03:21:48.310Z,78.30
2023-02-26T03:24:47.348Z,78.00
2023-02-26T03:27:42.685Z,77.50
2023-02-26T03:30:38.074Z,78.10
2023-02-26T03:33:32.229Z,79.00
2023-02-26T03:36:25.970Z,80.40
2023-02-26T03:39:21.578Z,80.50
2023-02-26T03:42:16.511Z,80.30
2023-02-26T03:45:09.046Z,79.90
2023-02-26T03:47:59.983Z,79.70
2023-02-26T03:50:51.742Z,79.50
2023-02-26T03:53:45.640Z,79.70
2023-02-26T03:56:40.529Z,79.70
2023-02-26T03:59:30.773Z,79.20
2023-02-26T04:02:23.768Z,79.40
2023-02-26T04:05:16.067Z,79.70
2023-02-26T04:08:05.039Z,78.90
2023-02-26T04:10:59.416Z,78.30
2023-02-26T04:13:49.526Z,78.40
2023-02-26T04:16:39.624Z,78.70
2023-02-26T04:19:28.700Z,78.50
2023-02-26T04:22:17.802Z,78.40
2023-02-26T04:25:07.564Z,78.20
2023-02-26T04:27:56.268Z,76.90
2023-02-26T04:30:45.183Z,74.40
2023-02-26T04:33:35.235Z,74.80
2023-02-26T04:36:24.346Z,75.20
2023-02-26T04:39:13.320Z,74.30
2023-02-26T04:42:01.945Z,72.40
2023-02-26T04:44:50.603Z,70.20
2023-02-26T04:47:39.328Z,70.00
2023-02-26T04:50:29.375Z,68.90
2023-02-26T04:53:18.035Z,66.70
2023-02-26T04:56:07.951Z,63.40
2023-02-26T04:58:56.649Z,62.70
2023-02-26T05:01:45.294Z,61.60
2023-02-26T05:04:34.276Z,61.60
2023-02-26T05:07:24.358Z,60.30
2023-02-26T05:10:13.602Z,60.70
2023-02-26T05:13:02.323Z,59.70
2023-02-26T05:15:50.976Z,57.20
2023-02-26T05:18:39.631Z,57.80
2023-02-26T05:21:28.315Z,56.30
2023-02-26T05:24:18.549Z,55.20
2023-02-26T05:27:07.192Z,55.90
2023-02-26T05:29:55.768Z,55.60
2023-02-26T05:32:44.547Z,57.20
2023-02-26T05:35:33.443Z,58.70
2023-02-26T05:38:22.088Z,58.10
2023-02-26T05:41:12.110Z,58.30
2023-02-26T05:44:00.686Z,56.90
2023-02-26T05:46:49.463Z,56.90
2023-02-26T05:49:38.228Z,56.50
2023-02-26T05:52:26.849Z,57.60
2023-02-26T05:55:15.429Z,57.70
2023-02-26T05:58:05.476Z,57.90
2023-02-26T06:00:54.116Z,58.30
2023-02-26T06:03:44.370Z,56.90
2023-02-26T06:06:33.102Z,57.40
2023-02-26T06:09:21.690Z,58.30
2023-02-26T06:12:10.700Z,57.50
2023-02-26T06:15:00.662Z,58.20
2023-02-26T06:17:49.273Z,58.70
2023-02-26T06:20:38.271Z,58.00
2023-02-26T06:23:26.947Z,58.40
2023-02-26T06:26:15.560Z,58.30
2023-02-26T06:29:04.430Z,56.90
2023-02-26T06:31:54.519Z,57.00
2023-02-26T06:34:43.106Z,56.50
2023-02-26T06:37:31.702Z,57.30
2023-02-26T06:40:20.488Z,57.60
2023-02-26T06:43:09.135Z,54.90
2023-02-26T06:45:59.989Z,55.10
2023-02-26T06:48:50.031Z,54.60
2023-02-26T06:51:38.670Z,53.90
2023-02-26T06:54:27.317Z,54.90
2023-02-26T06:57:15.986Z,53.70
2023-02-26T07:00:06.626Z,54.60
2023-02-26T07:02:55.336Z,49.20
2023-02-26T07:05:46.060Z,39.70
2023-02-26T07:08:34.692Z,36.20
2023-02-26T07:11:23.691Z,36.80
2023-02-26T07:14:12.602Z,38.00
2023-02-26T07:17:01.751Z,38.90
2023-02-26T07:19:52.050Z,37.90
2023-02-26T07:22:42.110Z,40.30
2023-02-26T07:25:30.721Z,44.10
2023-02-26T07:28:20.705Z,47.10
2023-02-26T07:31:09.384Z,48.40
2023-02-26T07:33:58.318Z,49.00
2023-02-26T07:36:46.932Z,48.70
2023-02-26T07:39:36.945Z,46.20
2023-02-26T07:42:25.610Z,46.10
2023-02-26T07:45:14.600Z,45.10
2023-02-26T07:48:03.288Z,45.30
2023-02-26T07:50:53.629Z,45.90
2023-02-26T07:53:42.238Z,45.90
2023-02-26T07:56:32.236Z,42.70
2023-02-26T07:59:20.859Z,42.00
2023-02-26T08:02:09.677Z,43.20
2023-02-26T08:04:58.324Z,43.50
2023-02-26T08:07:46.943Z,44.00
2023-02-26T08:10:35.601Z,44.90
2023-02-26T08:13:25.619Z,41.20
2023-02-26T08:16:14.289Z,39.40
2023-02-26T08:19:02.950Z,39.40
2023-02-26T08:21:51.734Z,33.30
2023-02-26T08:24:40.349Z,31.90
2023-02-26T08:27:28.995Z,30.70
2023-02-26T08:30:19.445Z,27.30
2023-02-26T08:33:08.346Z,24.90
2023-02-26T08:35:59.143Z,19.90
2023-02-26T08:38:47.797Z,20.70
2023-02-26T08:41:36.747Z,17.60
2023-02-26T08:44:25.436Z,18.50
2023-02-26T08:47:21.768Z,18.30
2023-02-26T08:50:16.742Z,16.90
2023-02-26T08:53:05.419Z,15.20
2023-02-26T08:55:55.050Z,11.50
2023-02-26T08:58:43.913Z,13.80
2023-02-26T09:01:32.915Z,14.10
2023-02-26T09:04:23.129Z,10.30
2023-02-26T09:07:11.757Z,8.20
2023-02-26T09:10:00.426Z,4.70
2023-02-26T09:12:49.009Z,6.20
2023-02-26T09:15:37.745Z,1.00
2023-02-26T09:18:26.382Z,1.00
2023-02-26T09:21:16.417Z,1.10
2023-02-26T09:24:05.461Z,1.10
2023-02-26T09:26:54.035Z,1.30
2023-02-26T09:29:42.697Z,1.50
2023-02-26T09:32:31.464Z,1.00
2023-02-26T09:35:20.377Z,1.00
2023-02-26T09:38:10.605Z,1.00
2023-02-26T09:41:01.440Z,1.00
2023-02-26T09:44:02.323Z,1.00
2023-02-26T09:46:58.971Z,1.00
2023-02-26T09:49:57.546Z,1.00
2023-02-26T09:52:52.391Z,1.00
2023-02-26T09:55:45.138Z,1.00
2023-02-26T09:58:36.189Z,1.00
2023-02-26T10:01:30.107Z,2.80
2023-02-26T10:04:28.402Z,2.00
2023-02-26T10:07:29.355Z,1.00
2023-02-26T10:10:30.345Z,1.00
2023-02-26T10:13:34.224Z,1.00
2023-02-26T10:16:28.393Z,1.00
2023-02-26T10:19:21.214Z,1.00
2023-02-26T10:22:17.911Z,1.00
2023-02-26T10:25:12.413Z,1.00
2023-02-26T10:28:07.828Z,1.00
2023-02-26T10:31:03.592Z,1.00
2023-02-26T10:33:59.094Z,1.00
2023-02-26T10:36:53.343Z,1.00
2023-02-26T10:39:48.879Z,1.00
2023-02-26T10:42:46.816Z,1.00
2023-02-26T10:45:43.877Z,1.00
2023-02-26T10:48:55.686Z,1.00
2023-02-26T10:51:46.723Z,1.00
2023-02-26T10:54:38.409Z,1.00
2023-02-26T10:57:33.746Z,1.00
2023-02-26T11:00:23.786Z,1.00
2023-02-26T11:03:19.111Z,1.00
2023-02-26T11:06:10.148Z,1.00
2023-02-26T11:09:02.042Z,1.00
2023-02-26T11:11:53.904Z,1.00
2023-02-26T11:14:44.359Z,1.00
2023-02-26T11:17:34.369Z,1.00
2023-02-26T11:20:32.605Z,1.00
2023-02-26T11:23:27.347Z,1.00
2023-02-26T11:26:19.221Z,1.00
2023-02-26T11:29:08.064Z,1.00
2023-02-26T11:31:58.356Z,1.00
2023-02-26T11:34:50.251Z,1.00
2023-02-26T11:37:41.497Z,1.00
2023-02-26T11:40:39.204Z,1.00
2023-02-26T11:43:35.018Z,1.00
2023-02-26T11:46:26.586Z,1.00
2023-02-26T11:49:19.158Z,1.00
2023-02-26T11:52:19.385Z,1.00
2023-02-26T11:55:20.097Z,1.00
2023-02-26T11:58:24.847Z,1.00
2023-02-26T12:01:16.722Z,1.00
2023-02-26T12:04:06.050Z,1.00
2023-02-26T12:06:56.427Z,1.00
2023-02-26T12:09:46.353Z,1.00
2023-02-26T12:12:50.816Z,1.00
2023-02-26T12:15:49.246Z,1.00
2023-02-26T12:19:02.221Z,1.00
2023-02-26T12:22:13.989Z,1.00
2023-02-26T12:25:24.500Z,1.00
2023-02-26T12:28:41.891Z,1.00
2023-02-26T12:32:00.844Z,1.00
2023-02-26T12:35:14.729Z,1.00
2023-02-26T12:38:15.429Z,1.00
2023-02-26T12:41:24.316Z,1.00
2023-02-26T12:44:24.938Z,1.00
2023-02-26T12:47:32.164Z,1.00
2023-02-26T12:50:31.922Z,1.00
2023-02-26T12:53:47.034Z,1.00
2023-02-26T12:56:54.555Z,1.00
2023-02-26T12:59:59.122Z,1.00
2023-02-26T13:03:28.030Z,1.00
2023-02-26T13:06:39.020Z,1.00
2023-02-26T13:09:37.369Z,1.00
2023-02-26T13:12:38.895Z,1.00
2023-02-26T13:15:57.603Z,1.00
2023-02-26T13:18:55.118Z,1.00
2023-02-26T13:21:49.426Z,1.00
2023-02-26T13:24:42.515Z,1.00
2023-02-26T13:27:35.692Z,1.00
2023-02-26T13:30:29.645Z,1.00
2023-02-26T13:33:20.990Z,1.00
2023-02-26T13:36:11.943Z,1.00
2023-02-26T13:39:21.682Z,1.00
2023-02-26T13:42:27.001Z,1.00
2023-02-26T13:45:32.059Z,1.00
2023-02-26T13:48:30.724Z,1.00
2023-02-26T13:51:31.807Z,1.00
2023-02-26T13:54:44.460Z,1.00
2023-02-26T13:57:43.910Z,1.00
2023-02-26T14:00:35.622Z,1.00
2023-02-26T14:03:35.116Z,1.00
2023-02-26T14:06:37.788Z,1.00
2023-02-26T14:09:44.366Z,1.00
2023-02-26T14:12:37.194Z,1.00
2023-02-26T14:15:40.879Z,1.00
2023-02-26T14:18:37.879Z,1.00
2023-02-26T14:21:37.510Z,1.00
2023-02-26T14:24:38.212Z,1.00
2023-02-26T14:27:35.135Z,1.00
2023-02-26T14:30:31.385Z,1.00
2023-02-26T14:33:28.132Z,1.00
2023-02-26T14:36:25.277Z,1.00
2023-02-26T14:39:25.286Z,1.00
2023-02-26T14:42:18.623Z,1.00
2023-02-26T14:45:31.756Z,1.00
2023-02-26T14:48:25.262Z,1.00
2023-02-26T14:51:24.191Z,1.00
2023-02-26T14:54:34.629Z,1.00
2023-02-26T14:57:32.132Z,1.00
2023-02-26T15:00:32.479Z,1.00
2023-02-26T15:03:40.269Z,1.00
2023-02-26T15:06:49.171Z,1.00
2023-02-26T15:09:49.574Z,1.00
2023-02-26T15:12:50.134Z,1.00
2023-02-26T15:15:46.741Z,1.00
2023-02-26T15:19:05.591Z,1.00
2023-02-26T15:22:04.667Z,1.00
2023-02-26T15:24:54.813Z,1.00
2023-02-26T15:27:43.616Z,1.00
2023-02-26T15:30:34.698Z,1.00
2023-02-26T15:33:26.110Z,1.00
2023-02-26T15:36:18.794Z,1.00
2023-02-26T15:39:10.336Z,1.00
2023-02-26T15:42:01.876Z,1.00
2023-02-26T15:44:57.209Z,1.00
2023-02-26T15:47:46.091Z,1.00
2023-02-26T15:50:37.367Z,1.00
2023-02-26T15:53:30.883Z,1.00
2023-02-26T15:56:24.615Z,1.00
2023-02-26T15:59:18.660Z,1.00
2023-02-26T16:02:13.710Z,1.00
2023-02-26T16:05:03.703Z,1.00
2023-02-26T16:07:52.767Z,1.00
2023-02-26T16:10:43.966Z,1.00
2023-02-26T16:13:37.761Z,1.00
2023-02-26T16:16:30.357Z,1.00
2023-02-26T16:19:22.097Z,1.00
2023-02-26T16:22:21.016Z,1.00
2023-02-26T16:25:16.573Z,1.00
2023-02-26T16:28:07.790Z,1.00
2023-02-26T16:30:59.035Z,1.00
2023-02-26T16:33:58.751Z,1.00
2023-02-26T16:36:48.321Z,1.00
2023-02-26T16:39:36.884Z,1.00
2023-02-26T16:42:37.862Z,1.00
2023-02-26T16:45:49.255Z,1.00
2023-02-26T16:48:41.477Z,1.00
2023-02-26T16:51:37.362Z,1.00
2023-02-26T16:54:28.609Z,1.00
2023-02-26T16:57:20.895Z,1.00
2023-02-26T17:00:17.780Z,1.00
2023-02-26T17:03:16.554Z,1.00
2023-02-26T17:06:08.598Z,1.00
2023-02-26T17:09:01.927Z,1.00
2023-02-26T17:11:50.585Z,1.00
2023-02-26T17:14:42.098Z,1.00
2023-02-26T17:17:30.690Z,1.00
2023-02-26T17:20:19.494Z,1.00
2023-02-26T17:23:10.032Z,1.00
2023-02-26T17:26:02.474Z,1.00
2023-02-26T17:28:51.308Z,1.00
2023-02-26T17:31:43.718Z,1.00
2023-02-26T17:34:32.504Z,1.00
2023-02-26T17:37:21.777Z,1.00
2023-02-26T17:40:22.690Z,1.00
2023-02-26T17:43:12.854Z,1.00
2023-02-26T17:46:01.482Z,1.00
2023-02-26T17:48:50.319Z,1.00
2023-02-26T17:51:39.562Z,1.00
2023-02-26T17:54:28.184Z,1.00
2023-02-26T17:57:19.466Z,1.00
2023-02-26T18:00:15.013Z,1.00
2023-02-26T18:03:04.749Z,1.00
2023-02-26T18:05:55.878Z,1.00
2023-02-26T18:08:46.775Z,1.00
2023-02-26T18:11:35.449Z,1.00
2023-02-26T18:14:24.107Z,1.00
2023-02-26T18:17:15.880Z,1.00
2023-02-26T18:20:06.856Z,1.00
2023-02-26T18:22:55.464Z,1.00
2023-02-26T18:25:45.521Z,1.00
2023-02-26T18:28:34.660Z,1.00
2023-02-26T18:31:23.906Z,1.00
2023-02-26T18:34:14.364Z,1.00
2023-02-26T18:37:04.513Z,1.00
2023-02-26T18:39:53.727Z,1.00
2023-02-26T18:42:42.403Z,1.00
2023-02-26T18:45:31.272Z,1.00
2023-02-26T18:48:21.578Z,1.00
2023-02-26T18:51:11.639Z,1.00
2023-02-26T18:54:00.252Z,1.00
2023-02-26T18:56:48.906Z,1.00
2023-02-26T18:59:37.701Z,1.00
2023-02-26T19:02:26.701Z,1.00
2023-02-26T19:05:16.532Z,1.00
2023-02-26T19:08:07.345Z,1.00
2023-02-26T19:10:56.033Z,1.00
2023-02-26T19:13:45.421Z,1.00
2023-02-26T19:16:38.174Z,1.00
2023-02-26T19:19:26.819Z,1.00
2023-02-26T19:22:16.675Z,1.00
2023-02-26T19:25:07.966Z,1.00
2023-02-26T19:27:57.091Z,1.00
2023-02-26T19:30:45.713Z,1.00
2023-02-26T19:33:34.486Z,1.00
2023-02-26T19:36:23.115Z,1.00
2023-02-26T19:39:12.853Z,1.00
2023-02-26T19:42:02.822Z,1.00
2023-02-26T19:44:51.410Z,1.00
2023-02-26T19:47:40.283Z,1.00
2023-02-26T19:50:28.945Z,1.00
2023-02-26T19:53:17.590Z,1.00
2023-02-26T19:56:07.771Z,1.00
2023-02-26T19:58:57.844Z,1.00
2023-02-26T20:01:49.416Z,1.00
2023-02-26T20:04:38.262Z,1.00
2023-02-26T20:07:27.193Z,1.00
2023-02-26T20:10:16.884Z,1.00
2023-02-26T20:13:05.519Z,1.00
2023-02-26T20:15:55.556Z,1.00
2023-02-26T20:18:45.837Z,1.00
2023-02-26T20:21:34.420Z,1.00
2023-02-26T20:24:23.369Z,1.00
2023-02-26T20:27:11.948Z,1.00
2023-02-26T20:30:00.561Z,1.00
2023-02-26T20:32:50.708Z,1.00
2023-02-26T20:35:39.484Z,1.00
2023-02-26T20:38:28.345Z,1.00
2023-02-26T20:41:16.964Z,1.00
2023-02-26T20:44:05.938Z,1.00
2023-02-26T20:46:55.042Z,1.00
2023-02-26T20:49:45.087Z,1.00
2023-02-26T20:52:33.677Z,1.00
2023-02-26T20:55:22.352Z,1.00
2023-02-26T20:58:10.939Z,1.00
2023-02-26T21:00:59.671Z,1.00
2023-02-26T21:03:48.290Z,1.00
2023-02-26T21:06:38.611Z,1.40
2023-02-26T21:09:27.299Z,1.20
2023-02-26T21:12:16.185Z,2.10
2023-02-26T21:15:05.666Z,2.80
2023-02-26T21:17:54.345Z,3.10
2023-02-26T21:20:43.205Z,3.70
2023-02-26T21:23:33.910Z,4.60
2023-02-26T21:26:23.043Z,5.50
2023-02-26T21:29:11.735Z,7.20
2023-02-26T21:32:03.543Z,9.70
2023-02-26T21:34:52.261Z,11.20
2023-02-26T21:37:40.831Z,9.70
2023-02-26T21:40:31.853Z,9.30
2023-02-26T21:43:20.413Z,10.00
2023-02-26T21:46:09.090Z,10.80
2023-02-26T21:48:58.188Z,11.40
2023-02-26T21:51:46.780Z,11.50
2023-02-26T21:54:35.458Z,11.30
2023-02-26T21:57:25.650Z,10.50
2023-02-26T22:00:16.192Z,11.10
2023-02-26T22:03:05.318Z,11.40
2023-02-26T22:05:54.266Z,11.60
2023-02-26T22:08:42.909Z,11.50
2023-02-26T22:11:31.648Z,11.60
2023-02-26T22:14:22.098Z,12.10
2023-02-26T22:17:10.782Z,12.50
2023-02-26T22:19:59.454Z,13.60
2023-02-26T22:22:48.014Z,14.50
2023-02-26T22:25:38.494Z,14.20
2023-02-26T22:28:27.147Z,14.70
2023-02-26T22:31:17.334Z,14.70
2023-02-26T22:34:06.036Z,14.90
2023-02-26T22:36:55.022Z,15.00
2023-02-26T22:39:43.679Z,15.60
2023-02-26T22:42:32.462Z,16.20
2023-02-26T22:45:21.231Z,16.00
2023-02-26T22:48:11.259Z,16.10
2023-02-26T22:50:59.864Z,16.40
2023-02-26T22:53:48.469Z,17.60
2023-02-26T22:56:37.092Z,18.20
2023-02-26T22:59:25.666Z,18.70
2023-02-26T23:02:14.336Z,19.50
2023-02-26T23:05:04.666Z,19.80
2023-02-26T23:07:53.258Z,19.20
2023-02-26T23:10:41.877Z,18.90
2023-02-26T23:13:34.360Z,18.80
2023-02-26T23:16:23.002Z,18.50
2023-02-26T23:19:11.778Z,18.60
2023-02-26T23:22:02.018Z,19.10
2023-02-26T23:24:50.583Z,18.80
2023-02-26T23:27:39.309Z,19.30
2023-02-26T23:30:28.345Z,19.70
2023-02-26T23:33:17.104Z,19.40
2023-02-26T23:36:06.271Z,18.70
2023-02-26T23:38:56.273Z,18.90
2023-02-26T23:41:44.909Z,18.90
2023-02-26T23:44:33.831Z,18.80
2023-02-26T23:47:22.481Z,19.20
2023-02-26T23:50:12.388Z,19.60
2023-02-26T23:53:01.140Z,19.90
2023-02-26T23:55:57.116Z,20.10
2023-02-26T23:58:45.882Z,20.80
